Time;durP1;ratioP1;P1;durP2;ratioP2;P2;SDS_P1;SDS_P2;PMS_P1;PMS_P2;Temp;Humidity;BMP_temperature;BMP_pressure;BME280_temperature;BME280_humidity;BME280_pressure;Samples;Min_cycle;Max_cycle;Signal;HPM_P1;HPM_P2
2022/05/12 00:00:46;;;;;;;10.60;4.32;;;;;;;;;;5071282;28;20444;-51
2022/05/12 00:03:16;;;;;;;9.60;3.90;;;;;;;;;;5071376;28;20766;-52
2022/05/12 00:05:42;;;;;;;7.70;3.53;;;;;;;;;;5071046;28;20404;-52
2022/05/12 00:08:09;;;;;;;7.15;3.35;;;;;;;;;;5071398;28;20400;-52
2022/05/12 00:10:35;;;;;;;6.53;3.38;;;;;;;;;;5070950;28;20392;-51
2022/05/12 00:13:01;;;;;;;9.37;3.50;;;;;;;;;;5072588;28;20272;-52
2022/05/12 00:15:31;;;;;;;9.02;3.60;;;;;;;;;;5070811;28;20404;-52
2022/05/12 00:17:56;;;;;;;6.63;3.40;;;;;;;;;;5070500;28;20453;-52
2022/05/12 00:20:24;;;;;;;6.47;3.00;;;;;;;;;;5071612;28;20227;-52
2022/05/12 00:22:50;;;;;;;8.00;3.50;;;;;;;;;;5070313;28;20412;-52
2022/05/12 00:25:17;;;;;;;6.67;3.23;;;;;;;;;;5071432;28;20461;-52
2022/05/12 00:27:43;;;;;;;7.93;3.13;;;;;;;;;;5069588;28;20670;-52
2022/05/12 00:30:10;;;;;;;8.00;3.23;;;;;;;;;;5071537;28;20278;-52
2022/05/12 00:32:36;;;;;;;7.00;3.00;;;;;;;;;;5071528;28;20199;-53
2022/05/12 00:35:02;;;;;;;6.20;3.27;;;;;;;;;;5071579;28;20199;-52
2022/05/12 00:37:29;;;;;;;7.27;3.20;;;;;;;;;;5071370;28;20195;-52
2022/05/12 00:39:55;;;;;;;6.40;2.90;;;;;;;;;;5071408;28;20242;-52
2022/05/12 00:42:21;;;;;;;5.03;2.83;;;;;;;;;;5071276;28;20196;-53
2022/05/12 00:44:47;;;;;;;6.17;3.33;;;;;;;;;;5071285;28;20230;-53
2022/05/12 00:47:13;;;;;;;6.33;3.10;;;;;;;;;;5071513;28;20597;-52
2022/05/12 00:49:40;;;;;;;5.60;3.00;;;;;;;;;;5071420;28;20192;-53
2022/05/12 00:52:07;;;;;;;8.87;3.30;;;;;;;;;;5071287;28;20199;-52
2022/05/12 00:54:41;;;;;;;5.57;3.43;;;;;;;;;;5070985;28;20753;-52
2022/05/12 00:57:09;;;;;;;5.87;3.30;;;;;;;;;;5071273;28;20203;-52
2022/05/12 00:59:35;;;;;;;5.87;3.20;;;;;;;;;;5071073;28;20219;-52
2022/05/12 01:02:02;;;;;;;6.17;2.93;;;;;;;;;;5071268;28;20269;-52
2022/05/12 01:04:29;;;;;;;4.90;3.10;;;;;;;;;;5068641;28;20592;-52
2022/05/12 01:06:55;;;;;;;7.03;3.03;;;;;;;;;;5071179;28;20200;-52
2022/05/12 01:09:22;;;;;;;6.73;2.97;;;;;;;;;;5071058;28;20302;-52
2022/05/12 01:11:50;;;;;;;4.53;3.10;;;;;;;;;;5071250;28;20199;-52
2022/05/12 01:14:17;;;;;;;5.03;3.07;;;;;;;;;;5071194;28;20666;-52
2022/05/12 01:16:44;;;;;;;3.73;2.83;;;;;;;;;;5036137;28;1006682;-52
2022/05/12 01:19:12;;;;;;;6.13;3.30;;;;;;;;;;5071880;28;20217;-52
2022/05/12 01:21:38;;;;;;;9.07;3.30;;;;;;;;;;5071884;28;20204;-52
2022/05/12 01:24:06;;;;;;;6.33;2.97;;;;;;;;;;5071707;28;20368;-52
2022/05/12 01:26:33;;;;;;;5.40;3.03;;;;;;;;;;5071793;28;20210;-52
2022/05/12 01:28:59;;;;;;;6.00;3.30;;;;;;;;;;5071980;28;20278;-52
2022/05/12 01:31:25;;;;;;;11.73;2.80;;;;;;;;;;5071679;28;20192;-52
2022/05/12 01:33:51;;;;;;;4.03;2.50;;;;;;;;;;5070051;28;20269;-52
2022/05/12 01:36:18;;;;;;;2.80;2.00;;;;;;;;;;5071751;28;20199;-52
2022/05/12 01:38:44;;;;;;;3.67;2.07;;;;;;;;;;5071638;28;20309;-52
2022/05/12 01:41:11;;;;;;;3.60;1.97;;;;;;;;;;5071579;28;20345;-52
2022/05/12 01:43:37;;;;;;;3.37;1.93;;;;;;;;;;5071573;28;20724;-52
2022/05/12 01:46:03;;;;;;;3.57;2.07;;;;;;;;;;5071631;28;20269;-52
2022/05/12 01:48:29;;;;;;;2.83;1.60;;;;;;;;;;5071598;28;20658;-52
2022/05/12 01:50:55;;;;;;;2.60;1.70;;;;;;;;;;5071420;28;20279;-52
2022/05/12 01:53:21;;;;;;;3.73;1.40;;;;;;;;;;5071425;28;20202;-52
2022/05/12 01:55:48;;;;;;;2.93;1.90;;;;;;;;;;5071624;28;20199;-52
2022/05/12 01:58:17;;;;;;;2.50;1.50;;;;;;;;;;5071631;28;20221;-52
2022/05/12 02:00:43;;;;;;;3.73;1.77;;;;;;;;;;5071377;28;20310;-52
2022/05/12 02:03:09;;;;;;;2.80;1.57;;;;;;;;;;5071441;28;20310;-53
2022/05/12 02:05:36;;;;;;;3.50;1.67;;;;;;;;;;5071308;28;20670;-53
2022/05/12 02:08:03;;;;;;;3.57;1.80;;;;;;;;;;5071480;28;20195;-53
2022/05/12 02:10:30;;;;;;;5.00;1.90;;;;;;;;;;5071406;28;20229;-53
2022/05/12 02:12:56;;;;;;;4.73;1.83;;;;;;;;;;5071602;28;20249;-54
2022/05/12 02:15:24;;;;;;;4.33;1.77;;;;;;;;;;5072209;28;20199;-54
2022/05/12 02:17:51;;;;;;;4.13;1.53;;;;;;;;;;5074886;28;20253;-53
2022/05/12 02:20:17;;;;;;;4.50;1.70;;;;;;;;;;5074855;28;20224;-52
2022/05/12 02:22:43;;;;;;;2.93;1.57;;;;;;;;;;5074802;28;20200;-51
2022/05/12 02:25:10;;;;;;;3.37;2.07;;;;;;;;;;5074790;28;20211;-53
2022/05/12 02:27:36;;;;;;;3.03;1.30;;;;;;;;;;5074607;28;20200;-53
2022/05/12 02:30:03;;;;;;;2.63;1.20;;;;;;;;;;5074655;28;20653;-53
2022/05/12 02:32:30;;;;;;;2.37;1.30;;;;;;;;;;5074676;28;20223;-53
2022/05/12 02:34:57;;;;;;;3.33;1.40;;;;;;;;;;5074590;28;20195;-54
2022/05/12 02:37:24;;;;;;;1.73;1.20;;;;;;;;;;5074467;28;20191;-52
2022/05/12 02:39:50;;;;;;;1.57;1.17;;;;;;;;;;5074272;28;20281;-52
2022/05/12 02:42:16;;;;;;;2.67;1.10;;;;;;;;;;5074546;28;20206;-52
2022/05/12 02:44:42;;;;;;;2.47;1.10;;;;;;;;;;5074377;28;20294;-53
2022/05/12 02:47:08;;;;;;;2.53;1.10;;;;;;;;;;5074411;28;20195;-52
2022/05/12 02:49:36;;;;;;;2.53;1.13;;;;;;;;;;5074222;28;20641;-52
2022/05/12 02:52:03;;;;;;;3.00;0.93;;;;;;;;;;5074332;28;20253;-53
2022/05/12 02:54:29;;;;;;;3.23;0.90;;;;;;;;;;5074258;28;20662;-53
2022/05/12 02:56:55;;;;;;;3.20;0.97;;;;;;;;;;5074012;28;20195;-53
2022/05/12 02:59:21;;;;;;;2.77;1.20;;;;;;;;;;5073645;28;20619;-52
2022/05/12 03:01:47;;;;;;;1.97;1.10;;;;;;;;;;5073713;28;20191;-52
2022/05/12 03:04:13;;;;;;;3.73;1.27;;;;;;;;;;5074127;28;20684;-53
2022/05/12 03:06:42;;;;;;;2.23;1.37;;;;;;;;;;5073734;28;20210;-53
2022/05/12 03:09:09;;;;;;;3.53;1.47;;;;;;;;;;5073884;28;20572;-53
2022/05/12 03:11:35;;;;;;;2.17;0.90;;;;;;;;;;5072167;28;20195;-53
2022/05/12 03:14:03;;;;;;;3.20;1.43;;;;;;;;;;5073999;28;20800;-53
2022/05/12 03:16:29;;;;;;;1.80;1.07;;;;;;;;;;5073609;28;20600;-53
2022/05/12 03:18:55;;;;;;;3.57;1.40;;;;;;;;;;5073776;28;20282;-53
2022/05/12 03:21:22;;;;;;;1.33;1.10;;;;;;;;;;5073612;28;20319;-53
2022/05/12 03:23:50;;;;;;;3.07;1.00;;;;;;;;;;5073541;28;20196;-53
2022/05/12 03:26:16;;;;;;;2.10;1.37;;;;;;;;;;5073095;28;20195;-53
2022/05/12 03:28:42;;;;;;;2.60;1.10;;;;;;;;;;5073102;28;20204;-53
2022/05/12 03:31:09;;;;;;;1.87;1.40;;;;;;;;;;5073488;28;20195;-53
2022/05/12 03:33:35;;;;;;;2.20;1.10;;;;;;;;;;5073336;28;20200;-53
2022/05/12 03:36:01;;;;;;;2.83;1.40;;;;;;;;;;5073510;28;20198;-51
2022/05/12 03:38:27;;;;;;;3.23;1.30;;;;;;;;;;5073305;28;20203;-52
2022/05/12 03:40:55;;;;;;;3.77;1.10;;;;;;;;;;5073054;28;20232;-53
2022/05/12 03:46:07;;;;;;;4.00;1.43;;;;;;;;;;5073338;28;20705;-52
2022/05/12 03:48:35;;;;;;;2.33;1.30;;;;;;;;;;5073052;28;20197;-53
2022/05/12 03:51:01;;;;;;;4.00;1.27;;;;;;;;;;5073279;28;20188;-52
2022/05/12 03:53:27;;;;;;;1.70;1.20;;;;;;;;;;5072959;28;20221;-52
2022/05/12 03:55:54;;;;;;;2.60;1.30;;;;;;;;;;5073075;28;20302;-52
2022/05/12 03:58:20;;;;;;;3.47;1.20;;;;;;;;;;5072966;28;20204;-52
2022/05/12 04:00:48;;;;;;;2.57;1.50;;;;;;;;;;5072787;28;20759;-53
2022/05/12 04:03:14;;;;;;;2.87;1.40;;;;;;;;;;5072995;28;20204;-52
2022/05/12 04:05:40;;;;;;;3.10;1.60;;;;;;;;;;5072746;28;20192;-53
2022/05/12 04:08:06;;;;;;;2.83;1.70;;;;;;;;;;5072590;28;20719;-53
2022/05/12 04:10:32;;;;;;;4.60;1.87;;;;;;;;;;5072849;28;20226;-53
2022/05/12 04:13:00;;;;;;;4.20;1.70;;;;;;;;;;5072868;28;20195;-53
2022/05/12 04:15:26;;;;;;;3.00;1.50;;;;;;;;;;5072370;28;20273;-53
2022/05/12 04:17:56;;;;;;;4.80;1.43;;;;;;;;;;5072609;28;20208;-53
2022/05/12 04:20:22;;;;;;;1.83;1.60;;;;;;;;;;5072390;28;20284;-53
2022/05/12 04:22:48;;;;;;;2.73;1.70;;;;;;;;;;5072236;28;20204;-53
2022/05/12 04:25:14;;;;;;;4.10;2.20;;;;;;;;;;5072543;28;20215;-53
2022/05/12 04:27:40;;;;;;;4.47;1.50;;;;;;;;;;5072350;28;20192;-53
2022/05/12 04:30:11;;;;;;;3.90;1.60;;;;;;;;;;5072423;28;20188;-53
2022/05/12 04:32:37;;;;;;;3.00;1.70;;;;;;;;;;5072429;28;20200;-52
2022/05/12 04:35:15;;;;;;;3.83;1.83;;;;;;;;;;5072391;28;20253;-53
2022/05/12 04:37:42;;;;;;;3.13;1.60;;;;;;;;;;5071957;28;20202;-53
2022/05/12 04:40:08;;;;;;;3.90;2.23;;;;;;;;;;5072185;28;20219;-52
2022/05/12 04:42:34;;;;;;;4.63;2.03;;;;;;;;;;5072160;28;20204;-52
2022/05/12 04:45:00;;;;;;;4.73;2.00;;;;;;;;;;5072321;28;20191;-52
2022/05/12 04:47:28;;;;;;;2.93;1.70;;;;;;;;;;5072099;28;20687;-53
2022/05/12 04:49:55;;;;;;;3.80;1.90;;;;;;;;;;5071954;28;20199;-52
2022/05/12 04:52:21;;;;;;;2.90;1.80;;;;;;;;;;5072107;28;20291;-52
2022/05/12 04:54:47;;;;;;;4.80;1.97;;;;;;;;;;5071914;28;20270;-53
2022/05/12 04:57:13;;;;;;;7.17;2.23;;;;;;;;;;5071794;28;20674;-54
2022/05/12 04:59:39;;;;;;;4.57;1.87;;;;;;;;;;5071793;28;20199;-52
2022/05/12 05:02:05;;;;;;;4.33;2.10;;;;;;;;;;5071972;28;20257;-53
2022/05/12 05:04:32;;;;;;;4.93;2.00;;;;;;;;;;5072032;28;20611;-52
2022/05/12 05:06:58;;;;;;;3.07;1.67;;;;;;;;;;5071905;28;20299;-51
2022/05/12 05:09:24;;;;;;;4.13;2.10;;;;;;;;;;5071839;28;20227;-51
2022/05/12 05:11:51;;;;;;;5.13;1.80;;;;;;;;;;5069970;28;20199;-52
2022/05/12 05:14:17;;;;;;;3.23;1.80;;;;;;;;;;5071607;28;20670;-51
2022/05/12 05:16:43;;;;;;;3.70;1.73;;;;;;;;;;5071274;28;20285;-52
2022/05/12 05:19:09;;;;;;;4.07;1.60;;;;;;;;;;5069314;28;20321;-51
2022/05/12 05:21:37;;;;;;;6.67;2.33;;;;;;;;;;5071581;28;20251;-51
2022/05/12 05:24:03;;;;;;;2.33;2.10;;;;;;;;;;5071447;28;20692;-53
2022/05/12 05:26:30;;;;;;;4.50;2.10;;;;;;;;;;5071793;28;20203;-53
2022/05/12 05:28:56;;;;;;;5.40;1.60;;;;;;;;;;5071834;28;20211;-53
2022/05/12 05:31:22;;;;;;;2.90;1.80;;;;;;;;;;5071758;28;20183;-53
2022/05/12 05:33:49;;;;;;;3.27;1.67;;;;;;;;;;5071225;28;20249;-53
2022/05/12 05:36:15;;;;;;;6.07;1.83;;;;;;;;;;5071669;28;20210;-52
2022/05/12 05:38:42;;;;;;;4.47;1.77;;;;;;;;;;5071397;28;20206;-52
2022/05/12 05:41:09;;;;;;;4.33;2.00;;;;;;;;;;5071521;28;20257;-53
2022/05/12 05:43:36;;;;;;;3.80;1.73;;;;;;;;;;5071378;28;20200;-53
2022/05/12 05:46:02;;;;;;;5.37;2.00;;;;;;;;;;5071529;28;20203;-53
2022/05/12 05:48:27;;;;;;;4.60;1.90;;;;;;;;;;5071675;28;20249;-53
2022/05/12 05:53:39;;;;;;;3.17;1.60;;;;;;;;;;5075168;28;20677;-53
2022/05/12 05:56:09;;;;;;;6.50;1.90;;;;;;;;;;5075344;28;20269;-52
2022/05/12 05:58:36;;;;;;;2.63;1.70;;;;;;;;;;5075132;28;20286;-53
2022/05/12 06:01:02;;;;;;;2.93;1.87;;;;;;;;;;5075109;28;20717;-54
2022/05/12 06:03:28;;;;;;;8.20;1.67;;;;;;;;;;5075203;28;20245;-51
2022/05/12 06:05:55;;;;;;;3.73;1.77;;;;;;;;;;5075216;28;20209;-52
2022/05/12 06:08:21;;;;;;;4.00;1.70;;;;;;;;;;5075019;28;20199;-54
2022/05/12 06:10:47;;;;;;;3.43;1.87;;;;;;;;;;5074660;28;20206;-54
2022/05/12 06:13:14;;;;;;;6.27;1.93;;;;;;;;;;5075105;28;20206;-54
2022/05/12 06:15:41;;;;;;;9.10;1.70;;;;;;;;;;5074547;28;20713;-53
2022/05/12 06:18:07;;;;;;;2.70;1.60;;;;;;;;;;5074707;28;20201;-54
2022/05/12 06:20:33;;;;;;;5.50;2.07;;;;;;;;;;5074667;28;20306;-54
2022/05/12 06:22:59;;;;;;;5.10;2.03;;;;;;;;;;5074875;28;20203;-54
2022/05/12 06:25:25;;;;;;;3.03;1.80;;;;;;;;;;5074463;28;20345;-54
2022/05/12 06:27:51;;;;;;;5.57;1.80;;;;;;;;;;5074229;28;20199;-53
2022/05/12 06:30:19;;;;;;;3.70;1.90;;;;;;;;;;5074542;28;20199;-53
2022/05/12 06:32:46;;;;;;;2.10;1.50;;;;;;;;;;5074619;28;20226;-54
2022/05/12 06:35:13;;;;;;;4.57;1.77;;;;;;;;;;5074628;28;20721;-53
2022/05/12 06:37:39;;;;;;;2.93;1.50;;;;;;;;;;5074082;28;20223;-54
2022/05/12 06:40:06;;;;;;;2.90;1.47;;;;;;;;;;5074507;28;20224;-54
2022/05/12 06:42:35;;;;;;;5.53;1.57;;;;;;;;;;5074445;28;20212;-54
2022/05/12 06:45:01;;;;;;;1.80;1.50;;;;;;;;;;5074747;28;20269;-54
2022/05/12 06:47:28;;;;;;;4.20;1.90;;;;;;;;;;5074289;28;20191;-54
2022/05/12 06:49:54;;;;;;;3.43;2.03;;;;;;;;;;5073986;28;20208;-53
2022/05/12 06:52:21;;;;;;;3.33;1.80;;;;;;;;;;5074312;28;20203;-53
2022/05/12 06:54:49;;;;;;;5.13;1.90;;;;;;;;;;5074145;28;20199;-54
2022/05/12 06:57:23;;;;;;;2.73;1.50;;;;;;;;;;5074250;28;20203;-54
2022/05/12 06:59:49;;;;;;;3.57;1.90;;;;;;;;;;5073952;28;20204;-55
2022/05/12 07:02:16;;;;;;;2.97;1.77;;;;;;;;;;5074128;28;20203;-55
2022/05/12 07:04:45;;;;;;;3.03;1.80;;;;;;;;;;5073836;28;20639;-54
2022/05/12 07:07:12;;;;;;;3.53;1.40;;;;;;;;;;5074020;28;20587;-55
2022/05/12 07:09:38;;;;;;;2.83;1.90;;;;;;;;;;5073821;28;20270;-54
2022/05/12 07:12:04;;;;;;;2.87;1.60;;;;;;;;;;5074059;28;20654;-53
2022/05/12 07:14:31;;;;;;;2.10;1.73;;;;;;;;;;5073745;28;20203;-54
2022/05/12 07:16:57;;;;;;;2.10;1.50;;;;;;;;;;5073622;28;20282;-54
2022/05/12 07:19:23;;;;;;;5.37;1.60;;;;;;;;;;5073937;28;20627;-54
2022/05/12 07:27:20;;;;;;;4.40;1.60;;;;;;;;;;5073459;28;20199;-53
2022/05/12 07:29:46;;;;;;;2.30;1.57;;;;;;;;;;5073538;28;20192;-54
2022/05/12 07:32:13;;;;;;;4.60;1.80;;;;;;;;;;5073396;28;20215;-54
2022/05/12 07:34:40;;;;;;;2.50;1.37;;;;;;;;;;5073448;28;20195;-54
2022/05/12 07:37:07;;;;;;;3.87;1.70;;;;;;;;;;5073239;28;20203;-54
2022/05/12 07:39:35;;;;;;;2.97;1.60;;;;;;;;;;5072905;28;20653;-54
2022/05/12 07:42:02;;;;;;;4.43;1.80;;;;;;;;;;5073300;28;20232;-54
2022/05/12 07:44:38;;;;;;;2.73;1.70;;;;;;;;;;5071647;28;20206;-54
2022/05/12 07:47:05;;;;;;;3.73;1.80;;;;;;;;;;5073181;28;20226;-54
2022/05/12 07:49:35;;;;;;;3.27;1.90;;;;;;;;;;5073116;28;20233;-54
2022/05/12 07:52:01;;;;;;;5.43;1.70;;;;;;;;;;5073124;28;20197;-54
2022/05/12 07:54:28;;;;;;;3.53;1.60;;;;;;;;;;5073042;28;20197;-54
2022/05/12 07:56:54;;;;;;;2.77;1.63;;;;;;;;;;5072842;28;20204;-54
2022/05/12 07:59:21;;;;;;;4.67;1.67;;;;;;;;;;5072871;28;20655;-54
2022/05/12 08:01:47;;;;;;;4.87;1.70;;;;;;;;;;5072683;28;20282;-54
2022/05/12 08:04:13;;;;;;;3.73;1.60;;;;;;;;;;5072994;28;20201;-54
2022/05/12 08:06:39;;;;;;;5.13;1.63;;;;;;;;;;5072826;28;20203;-54
2022/05/12 08:09:05;;;;;;;3.43;1.63;;;;;;;;;;5072792;28;20218;-54
2022/05/12 08:11:33;;;;;;;4.10;1.60;;;;;;;;;;5072674;28;20665;-53
2022/05/12 08:13:58;;;;;;;4.23;1.60;;;;;;;;;;5072183;28;20224;-56
2022/05/12 08:16:25;;;;;;;4.07;2.00;;;;;;;;;;5070969;28;20424;-57
2022/05/12 08:18:52;;;;;;;5.32;2.10;;;;;;;;;;5071160;28;20928;-57
2022/05/12 08:21:18;;;;;;;4.93;1.60;;;;;;;;;;5072228;28;20558;-54
2022/05/12 08:23:44;;;;;;;4.70;2.00;;;;;;;;;;5072207;28;20293;-55
2022/05/12 08:26:11;;;;;;;2.87;1.60;;;;;;;;;;5071928;28;20653;-54
2022/05/12 08:28:40;;;;;;;5.17;1.90;;;;;;;;;;5072202;28;20289;-55
2022/05/12 08:31:06;;;;;;;3.60;1.80;;;;;;;;;;5072086;28;20459;-54
2022/05/12 08:33:33;;;;;;;2.30;1.43;;;;;;;;;;5072069;28;20246;-54
2022/05/12 08:35:59;;;;;;;3.13;1.70;;;;;;;;;;5072173;28;20214;-55
2022/05/12 08:38:25;;;;;;;4.30;2.17;;;;;;;;;;5071913;28;20203;-54
2022/05/12 08:41:01;;;;;;;3.27;1.70;;;;;;;;;;5071721;28;20258;-55
2022/05/12 08:43:30;;;;;;;2.27;1.57;;;;;;;;;;5072102;28;20189;-53
2022/05/12 08:46:01;;;;;;;4.00;1.60;;;;;;;;;;5072016;28;20198;-54
2022/05/12 08:48:27;;;;;;;3.63;1.87;;;;;;;;;;5071500;28;20209;-54
2022/05/12 08:50:55;;;;;;;2.80;1.80;;;;;;;;;;5071773;28;20277;-55
2022/05/12 08:53:22;;;;;;;2.93;1.60;;;;;;;;;;5071749;28;20199;-55
2022/05/12 08:55:50;;;;;;;2.77;1.63;;;;;;;;;;5072005;28;20230;-55
2022/05/12 08:58:18;;;;;;;4.07;1.80;;;;;;;;;;5071904;28;20209;-54
2022/05/12 09:00:48;;;;;;;2.37;1.60;;;;;;;;;;5071543;28;20597;-54
2022/05/12 09:03:26;;;;;;;4.77;1.57;;;;;;;;;;5071472;28;20684;-54
2022/05/12 09:05:56;;;;;;;4.77;1.70;;;;;;;;;;5071569;28;20276;-54
2022/05/12 09:08:28;;;;;;;2.73;1.60;;;;;;;;;;5070139;28;20249;-55
2022/05/12 09:10:58;;;;;;;2.63;1.33;;;;;;;;;;5071375;28;20225;-54
2022/05/12 09:13:25;;;;;;;3.03;1.50;;;;;;;;;;5071785;28;20199;-54
2022/05/12 09:15:55;;;;;;;4.37;1.60;;;;;;;;;;5071492;28;20643;-54
2022/05/12 09:18:26;;;;;;;4.80;1.67;;;;;;;;;;5079949;28;20194;-53
2022/05/12 09:20:53;;;;;;;2.33;1.50;;;;;;;;;;5091417;28;20211;-53
2022/05/12 09:23:19;;;;;;;3.35;1.85;;;;;;;;;;5090613;28;20448;-54
2022/05/12 09:25:46;;;;;;;4.60;2.10;;;;;;;;;;5092345;28;20390;-54
2022/05/12 09:28:20;;;;;;;2.93;1.70;;;;;;;;;;5096001;28;20436;-56
2022/05/12 09:30:47;;;;;;;4.03;1.77;;;;;;;;;;5094257;28;20665;-54
2022/05/12 09:33:22;;;;;;;4.67;1.60;;;;;;;;;;5095820;28;20199;-54
2022/05/12 09:35:56;;;;;;;2.33;1.50;;;;;;;;;;5095602;28;20560;-54
2022/05/12 09:38:25;;;;;;;3.37;1.60;;;;;;;;;;5095788;28;20281;-53
2022/05/12 09:40:52;;;;;;;3.60;1.57;;;;;;;;;;5095472;28;20317;-56
2022/05/12 09:43:19;;;;;;;4.13;1.70;;;;;;;;;;5095451;28;20205;-54
2022/05/12 09:45:59;;;;;;;4.97;1.50;;;;;;;;;;5095497;28;20195;-55
2022/05/12 09:48:26;;;;;;;1.97;1.23;;;;;;;;;;5095446;28;20234;-54
2022/05/12 09:50:53;;;;;;;5.33;1.83;;;;;;;;;;5095326;28;20194;-54
2022/05/12 09:53:29;;;;;;;2.53;1.63;;;;;;;;;;5095560;28;20206;-56
2022/05/12 09:56:04;;;;;;;3.03;1.43;;;;;;;;;;5095225;28;20209;-55
2022/05/12 09:58:34;;;;;;;3.10;1.48;;;;;;;;;;5094022;28;20421;-54
2022/05/12 10:01:20;;;;;;;3.55;1.60;;;;;;;;;;5093897;28;20413;-54
2022/05/12 10:09:23;;;;;;;3.17;1.67;;;;;;;;;;5095243;28;20198;-56
2022/05/12 10:11:53;;;;;;;3.77;1.70;;;;;;;;;;5094827;28;20201;-55
2022/05/12 10:14:24;;;;;;;1.80;1.30;;;;;;;;;;5095043;28;20225;-55
2022/05/12 10:16:51;;;;;;;2.67;1.60;;;;;;;;;;5094638;28;20230;-56
2022/05/12 10:19:22;;;;;;;2.07;1.50;;;;;;;;;;5094881;28;20221;-55
2022/05/12 10:21:51;;;;;;;3.33;1.20;;;;;;;;;;5094683;28;20235;-56
2022/05/12 10:24:22;;;;;;;5.13;1.37;;;;;;;;;;5094819;28;20219;-56
2022/05/12 10:26:51;;;;;;;3.30;1.70;;;;;;;;;;5094516;28;20683;-56
2022/05/12 10:29:25;;;;;;;5.30;1.50;;;;;;;;;;5094528;28;20199;-56
2022/05/12 10:31:55;;;;;;;4.20;1.70;;;;;;;;;;5094468;28;20671;-56
2022/05/12 10:34:33;;;;;;;4.23;1.67;;;;;;;;;;5094497;28;20725;-56
2022/05/12 10:37:05;;;;;;;3.17;1.30;;;;;;;;;;5092198;28;20276;-56
2022/05/12 10:39:35;;;;;;;3.17;1.37;;;;;;;;;;5094729;28;20203;-56
2022/05/12 10:42:11;;;;;;;2.07;1.30;;;;;;;;;;5094583;28;20276;-56
2022/05/12 10:44:47;;;;;;;3.73;1.40;;;;;;;;;;5094516;28;20293;-56
2022/05/12 10:47:19;;;;;;;2.43;1.20;;;;;;;;;;5094474;28;20198;-57
2022/05/12 10:49:47;;;;;;;1.53;1.10;;;;;;;;;;5094444;28;20195;-60
2022/05/12 10:52:28;;;;;;;2.00;1.17;;;;;;;;;;5094559;28;20202;-56
2022/05/12 10:55:02;;;;;;;2.03;1.43;;;;;;;;;;5094310;28;20190;-57
2022/05/12 10:57:36;;;;;;;1.80;1.23;;;;;;;;;;5092619;28;20789;-57
2022/05/12 11:00:13;;;;;;;1.60;0.93;;;;;;;;;;5093875;28;20211;-57
2022/05/12 11:02:40;;;;;;;1.90;1.20;;;;;;;;;;5093741;28;20208;-57
2022/05/12 11:05:09;;;;;;;1.77;1.00;;;;;;;;;;5093682;28;20208;-57
2022/05/12 11:07:38;;;;;;;2.77;1.30;;;;;;;;;;5093772;28;20209;-57
2022/05/12 11:10:06;;;;;;;2.77;1.30;;;;;;;;;;5093712;28;20199;-57
2022/05/12 11:12:38;;;;;;;2.57;1.10;;;;;;;;;;5093662;28;20191;-57
2022/05/12 11:15:08;;;;;;;3.87;1.50;;;;;;;;;;5093561;28;20549;-57
2022/05/12 11:17:37;;;;;;;2.27;1.30;;;;;;;;;;5093249;28;20326;-57
2022/05/12 11:20:09;;;;;;;2.87;1.20;;;;;;;;;;5093470;28;20200;-57
2022/05/12 11:22:37;;;;;;;0.77;0.77;;;;;;;;;;5093759;28;20210;-57
2022/05/12 11:25:07;;;;;;;1.73;1.20;;;;;;;;;;5093410;28;20734;-57
2022/05/12 11:27:44;;;;;;;4.43;1.33;;;;;;;;;;5092766;28;20293;-57
2022/05/12 11:30:19;;;;;;;2.80;1.07;;;;;;;;;;5093375;28;20206;-58
2022/05/12 11:32:51;;;;;;;2.73;1.20;;;;;;;;;;5093259;28;20216;-56
2022/05/12 11:35:19;;;;;;;1.63;1.07;;;;;;;;;;5093640;28;20195;-56
2022/05/12 11:37:53;;;;;;;4.33;1.20;;;;;;;;;;5093341;28;20199;-56
2022/05/12 11:40:35;;;;;;;2.77;1.20;;;;;;;;;;5093343;28;20198;-56
2022/05/12 11:45:48;;;;;;;2.83;1.10;;;;;;;;;;5093300;28;20237;-56
2022/05/12 11:48:19;;;;;;;1.83;1.23;;;;;;;;;;5092531;28;20242;-56
2022/05/12 11:51:02;;;;;;;1.20;1.10;;;;;;;;;;5093197;28;20279;-56
2022/05/12 11:53:31;;;;;;;1.23;1.13;;;;;;;;;;5093405;28;20216;-57
2022/05/12 11:56:01;;;;;;;2.17;1.30;;;;;;;;;;5093218;28;20210;-56
2022/05/12 11:58:31;;;;;;;2.00;1.10;;;;;;;;;;5093332;28;20203;-56
2022/05/12 12:00:59;;;;;;;2.20;1.27;;;;;;;;;;5093058;28;20227;-56
2022/05/12 12:03:35;;;;;;;3.47;1.00;;;;;;;;;;5093109;28;20196;-56
2022/05/12 12:06:04;;;;;;;2.57;1.00;;;;;;;;;;5093036;28;20205;-56
2022/05/12 12:08:44;;;;;;;4.73;1.43;;;;;;;;;;5093108;28;20202;-56
2022/05/12 12:11:22;;;;;;;2.70;1.20;;;;;;;;;;5092919;28;20561;-56
2022/05/12 12:13:51;;;;;;;2.53;1.37;;;;;;;;;;5092771;28;20241;-56
2022/05/12 12:16:18;;;;;;;2.67;1.13;;;;;;;;;;5092696;28;20252;-56
2022/05/12 12:18:55;;;;;;;4.53;1.30;;;;;;;;;;5092848;28;20199;-56
2022/05/12 12:21:39;;;;;;;3.20;1.40;;;;;;;;;;5091225;28;20223;-56
2022/05/12 12:24:09;;;;;;;1.43;0.87;;;;;;;;;;5090798;28;20219;-56
2022/05/12 12:26:37;;;;;;;3.57;1.40;;;;;;;;;;5092677;28;20191;-56
2022/05/12 12:29:15;;;;;;;3.23;1.50;;;;;;;;;;5092525;28;20711;-56
2022/05/12 12:31:44;;;;;;;3.00;1.00;;;;;;;;;;5092526;28;20680;-57
2022/05/12 12:34:13;;;;;;;1.77;1.27;;;;;;;;;;5092416;28;20558;-56
2022/05/12 12:36:57;;;;;;;2.30;1.00;;;;;;;;;;5092230;28;20281;-56
2022/05/12 12:39:33;;;;;;;3.07;1.10;;;;;;;;;;5092378;28;20297;-57
2022/05/12 12:42:05;;;;;;;2.50;1.20;;;;;;;;;;5092198;28;20250;-56
2022/05/12 12:44:33;;;;;;;3.67;1.30;;;;;;;;;;5092509;28;20198;-56
2022/05/12 12:47:12;;;;;;;2.17;1.20;;;;;;;;;;5092271;28;20207;-57
2022/05/12 12:49:48;;;;;;;2.33;1.20;;;;;;;;;;5092056;28;20203;-57
2022/05/12 12:52:14;;;;;;;2.60;1.30;;;;;;;;;;5092276;28;20272;-56
2022/05/12 12:57:27;;;;;;;1.83;1.13;;;;;;;;;;5092215;28;20572;-56
2022/05/12 12:59:55;;;;;;;4.83;1.40;;;;;;;;;;5091847;28;20248;-57
2022/05/12 13:02:26;;;;;;;4.33;1.27;;;;;;;;;;5091986;28;20704;-56
2022/05/12 13:04:54;;;;;;;2.40;1.20;;;;;;;;;;5091774;28;20218;-56
2022/05/12 13:07:25;;;;;;;1.50;1.03;;;;;;;;;;5091965;28;20278;-56
2022/05/12 13:09:53;;;;;;;3.40;1.10;;;;;;;;;;5091818;28;20222;-56
2022/05/12 13:12:20;;;;;;;2.43;1.20;;;;;;;;;;5091921;28;20206;-57
2022/05/12 13:14:47;;;;;;;2.83;1.43;;;;;;;;;;5092021;28;20249;-56
2022/05/12 13:17:19;;;;;;;2.03;1.13;;;;;;;;;;5091712;28;20232;-55
2022/05/12 13:19:45;;;;;;;5.03;1.40;;;;;;;;;;5091715;28;20243;-55
2022/05/12 13:22:19;;;;;;;1.73;1.03;;;;;;;;;;5091576;28;20706;-55
2022/05/12 13:24:45;;;;;;;3.60;1.10;;;;;;;;;;5091726;28;20709;-55
2022/05/12 13:27:12;;;;;;;1.77;1.10;;;;;;;;;;5091872;28;20204;-55
2022/05/12 13:29:39;;;;;;;3.23;1.10;;;;;;;;;;5091692;28;20195;-54
2022/05/12 13:32:07;;;;;;;2.37;1.10;;;;;;;;;;5091722;28;20197;-55
2022/05/12 13:34:35;;;;;;;2.80;1.03;;;;;;;;;;5091403;28;20232;-55
2022/05/12 13:37:13;;;;;;;2.47;1.17;;;;;;;;;;5091802;28;20224;-55
2022/05/12 13:39:40;;;;;;;2.00;1.20;;;;;;;;;;5091781;28;20284;-55
2022/05/12 13:42:07;;;;;;;2.70;1.40;;;;;;;;;;5089934;28;20256;-55
2022/05/12 13:44:36;;;;;;;2.73;1.17;;;;;;;;;;5091762;28;20200;-55
2022/05/12 13:47:04;;;;;;;2.27;1.20;;;;;;;;;;5091362;28;20200;-56
2022/05/12 13:49:32;;;;;;;2.77;1.17;;;;;;;;;;5091682;28;20639;-54
2022/05/12 13:52:14;;;;;;;1.83;1.07;;;;;;;;;;5084239;28;20199;-56
2022/05/12 13:54:41;;;;;;;2.27;1.20;;;;;;;;;;5091246;28;20661;-55
2022/05/12 13:57:16;;;;;;;1.17;0.90;;;;;;;;;;5091819;28;20287;-55
2022/05/12 13:59:51;;;;;;;1.77;1.00;;;;;;;;;;5091333;28;20645;-55
2022/05/12 14:02:19;;;;;;;1.60;1.00;;;;;;;;;;5091618;28;20230;-55
2022/05/12 14:04:45;;;;;;;2.07;1.13;;;;;;;;;;5091372;28;20279;-55
2022/05/12 14:07:13;;;;;;;2.93;1.23;;;;;;;;;;5091480;28;20192;-53
2022/05/12 14:09:51;;;;;;;3.03;1.13;;;;;;;;;;5091316;28;20199;-53
2022/05/12 14:12:21;;;;;;;2.37;1.20;;;;;;;;;;5093999;28;20209;-54
2022/05/12 14:20:21;;;;;;;2.77;1.20;;;;;;;;;;5095053;28;20190;-52
2022/05/12 14:22:48;;;;;;;1.37;1.07;;;;;;;;;;5094643;28;20231;-51
2022/05/12 14:25:15;;;;;;;3.30;1.50;;;;;;;;;;5095051;28;20222;-51
2022/05/12 14:27:41;;;;;;;1.70;0.90;;;;;;;;;;5095029;28;20219;-55
2022/05/12 14:30:09;;;;;;;1.60;1.10;;;;;;;;;;5094723;28;20673;-55
2022/05/12 14:32:37;;;;;;;3.17;1.30;;;;;;;;;;5089527;28;20200;-55
2022/05/12 14:35:04;;;;;;;1.93;1.20;;;;;;;;;;5094412;28;20228;-55
2022/05/12 14:37:31;;;;;;;4.67;1.30;;;;;;;;;;5094542;28;20302;-55
2022/05/12 14:39:59;;;;;;;3.20;1.50;;;;;;;;;;5094504;28;20208;-55
2022/05/12 14:42:25;;;;;;;3.43;1.20;;;;;;;;;;5094600;28;20231;-55
2022/05/12 14:44:51;;;;;;;3.97;1.30;;;;;;;;;;5094496;28;20224;-55
2022/05/12 14:47:19;;;;;;;3.43;1.20;;;;;;;;;;5094665;28;20199;-55
2022/05/12 14:49:48;;;;;;;3.53;1.10;;;;;;;;;;5094561;28;20203;-55
2022/05/12 14:52:16;;;;;;;2.30;1.10;;;;;;;;;;5094531;28;20233;-55
2022/05/12 14:54:43;;;;;;;5.63;1.40;;;;;;;;;;5094432;28;20200;-54
2022/05/12 14:57:10;;;;;;;3.33;1.40;;;;;;;;;;5094418;28;20291;-55
2022/05/12 14:59:36;;;;;;;2.67;1.00;;;;;;;;;;5094362;28;20683;-55
2022/05/12 15:02:03;;;;;;;2.87;1.33;;;;;;;;;;5094042;28;20223;-55
2022/05/12 15:04:30;;;;;;;1.60;0.93;;;;;;;;;;5094315;28;20203;-55
2022/05/12 15:06:56;;;;;;;1.97;0.97;;;;;;;;;;5094140;28;20657;-55
2022/05/12 15:09:23;;;;;;;2.67;1.10;;;;;;;;;;5094092;28;20700;-57
2022/05/12 15:11:49;;;;;;;2.80;1.30;;;;;;;;;;5094137;28;20190;-57
2022/05/12 15:14:17;;;;;;;2.50;1.20;;;;;;;;;;5094088;28;20294;-56
2022/05/12 15:16:43;;;;;;;2.67;1.43;;;;;;;;;;5093861;28;20235;-56